createdAt,value
2023-03-18T00:00:43.764Z,38.70
2023-03-18T00:03:13.281Z,38.69
2023-03-18T00:05:42.370Z,38.69
2023-03-18T00:08:10.852Z,38.82
2023-03-18T00:10:39.842Z,38.83
2023-03-18T00:13:08.003Z,39.01
2023-03-18T00:15:42.833Z,38.86
2023-03-18T00:18:11.378Z,38.95
2023-03-18T00:20:39.713Z,39.05
2023-03-18T00:23:10.379Z,38.93
2023-03-18T00:25:39.143Z,39.07
2023-03-18T00:28:07.551Z,38.88
2023-03-18T00:30:38.221Z,38.80
2023-03-18T00:33:07.504Z,38.78
2023-03-18T00:35:37.809Z,38.69
2023-03-18T00:38:16.093Z,38.65
2023-03-18T00:40:53.756Z,38.67
2023-03-18T00:43:23.380Z,38.54
2023-03-18T00:45:51.682Z,38.66
2023-03-18T00:48:24.313Z,38.47
2023-03-18T00:50:53.046Z,38.42
2023-03-18T00:53:23.889Z,38.43
2023-03-18T00:55:52.802Z,38.31
2023-03-18T00:58:20.863Z,38.05
2023-03-18T01:00:49.343Z,38.13
2023-03-18T01:03:19.044Z,38.26
2023-03-18T01:05:47.730Z,38.43
2023-03-18T01:08:15.872Z,38.39
2023-03-18T01:10:44.185Z,38.30
2023-03-18T01:13:12.788Z,38.40
2023-03-18T01:15:42.069Z,38.39
2023-03-18T01:18:11.487Z,38.24
2023-03-18T01:20:39.855Z,38.33
2023-03-18T01:23:09.059Z,38.32
2023-03-18T01:25:38.881Z,38.10
2023-03-18T01:28:07.205Z,38.06
2023-03-18T01:30:38.506Z,38.06
2023-03-18T01:33:08.421Z,37.95
2023-03-18T01:35:39.784Z,37.86
2023-03-18T01:38:08.723Z,38.03
2023-03-18T01:40:40.349Z,38.02
2023-03-18T01:43:10.752Z,38.02
2023-03-18T01:45:40.519Z,38.01
2023-03-18T01:48:14.070Z,38.05
2023-03-18T01:50:43.579Z,38.01
2023-03-18T01:53:14.258Z,38.14
2023-03-18T01:55:42.699Z,38.27
2023-03-18T01:58:17.415Z,38.30
2023-03-18T02:00:50.065Z,38.27
2023-03-18T02:03:20.318Z,38.44
2023-03-18T02:05:50.131Z,38.49
2023-03-18T02:08:19.071Z,38.67
2023-03-18T02:10:49.389Z,38.74
2023-03-18T02:13:18.848Z,38.61
2023-03-18T02:15:53.371Z,38.41
2023-03-18T02:18:28.643Z,38.25
2023-03-18T02:21:20.796Z,38.12
2023-03-18T02:23:54.113Z,37.98
2023-03-18T02:26:33.286Z,37.93
2023-03-18T02:29:11.520Z,37.96
2023-03-18T02:31:46.961Z,37.85
2023-03-18T02:34:15.642Z,37.91
2023-03-18T02:36:44.140Z,38.01
2023-03-18T02:39:14.200Z,37.85
2023-03-18T02:41:43.529Z,37.91
2023-03-18T02:44:12.368Z,37.72
2023-03-18T02:46:52.290Z,37.70
2023-03-18T02:49:21.883Z,37.71
2023-03-18T02:51:50.651Z,37.57
2023-03-18T02:54:24.225Z,37.37
2023-03-18T02:56:52.861Z,37.29
2023-03-18T02:59:22.167Z,37.20
2023-03-18T03:01:53.623Z,37.12
2023-03-18T03:04:23.788Z,37.11
2023-03-18T03:06:53.110Z,37.09
2023-03-18T03:09:31.309Z,37.05
2023-03-18T03:11:59.833Z,36.98
2023-03-18T03:14:29.339Z,36.78
2023-03-18T03:17:00.231Z,36.61
2023-03-18T03:19:31.864Z,36.58
2023-03-18T03:22:00.949Z,36.59
2023-03-18T03:24:30.506Z,36.50
2023-03-18T03:27:00.765Z,36.43
2023-03-18T03:29:29.543Z,36.48
2023-03-18T03:31:57.781Z,36.40
2023-03-18T03:34:26.017Z,36.38
2023-03-18T03:36:54.305Z,36.31
2023-03-18T03:39:23.230Z,36.30
2023-03-18T03:41:53.092Z,36.28
2023-03-18T03:44:24.656Z,36.03
2023-03-18T03:46:53.278Z,36.06
2023-03-18T03:49:23.263Z,36.13
2023-03-18T03:51:51.549Z,36.04
2023-03-18T03:54:20.641Z,35.97
2023-03-18T03:56:50.649Z,35.90
2023-03-18T03:59:19.540Z,35.87
2023-03-18T04:02:03.416Z,35.81
2023-03-18T04:04:32.979Z,35.98
2023-03-18T04:07:01.474Z,35.85
2023-03-18T04:09:30.645Z,35.82
2023-03-18T04:11:58.974Z,35.69
2023-03-18T04:14:27.274Z,35.95
2023-03-18T04:16:59.653Z,35.94
2023-03-18T04:19:30.641Z,35.88
2023-03-18T04:21:58.920Z,35.91
2023-03-18T04:24:27.631Z,35.90
2023-03-18T04:26:55.988Z,35.84
2023-03-18T04:29:24.569Z,35.98
2023-03-18T04:31:53.450Z,36.18
2023-03-18T04:34:22.883Z,36.15
2023-03-18T04:36:51.566Z,36.34
2023-03-18T04:39:20.663Z,36.61
2023-03-18T04:41:50.959Z,36.60
2023-03-18T04:44:19.487Z,36.88
2023-03-18T04:46:53.760Z,36.86
2023-03-18T04:49:22.565Z,36.93
2023-03-18T04:51:50.964Z,37.03
2023-03-18T04:54:28.485Z,37.09
2023-03-18T04:56:58.563Z,37.27
2023-03-18T04:59:28.575Z,37.16
2023-03-18T05:01:57.080Z,37.20
2023-03-18T05:04:26.219Z,37.38
2023-03-18T05:06:55.812Z,37.46
2023-03-18T05:09:28.968Z,37.49
2023-03-18T05:12:01.450Z,37.43
2023-03-18T05:14:35.460Z,37.61
2023-03-18T05:17:04.771Z,37.48
2023-03-18T05:19:37.860Z,37.48
2023-03-18T05:22:17.785Z,37.37
2023-03-18T05:24:46.692Z,37.27
2023-03-18T05:27:17.381Z,37.27
2023-03-18T05:29:48.518Z,37.27
2023-03-18T05:32:27.342Z,37.17
2023-03-18T05:35:01.105Z,37.39
2023-03-18T05:37:30.088Z,37.51
2023-03-18T05:40:11.852Z,37.45
2023-03-18T05:42:55.047Z,37.25
2023-03-18T05:45:27.831Z,37.56
2023-03-18T05:47:57.514Z,37.76
2023-03-18T05:50:35.732Z,37.85
2023-03-18T05:53:06.460Z,37.91
2023-03-18T05:55:36.391Z,38.04
2023-03-18T05:58:05.164Z,38.25
2023-03-18T06:00:35.692Z,38.46
2023-03-18T06:03:05.033Z,38.61
2023-03-18T06:05:34.482Z,38.66
2023-03-18T06:08:03.298Z,38.44
2023-03-18T06:10:32.491Z,38.36
2023-03-18T06:13:02.205Z,38.39
2023-03-18T06:15:32.575Z,38.26
2023-03-18T06:18:05.116Z,38.15
2023-03-18T06:20:34.834Z,38.10
2023-03-18T06:23:10.215Z,37.82
2023-03-18T06:25:38.647Z,37.96
2023-03-18T06:28:07.657Z,37.84
2023-03-18T06:30:37.363Z,37.78
2023-03-18T06:33:06.731Z,37.87
2023-03-18T06:35:38.432Z,37.65
2023-03-18T06:38:09.155Z,37.74
2023-03-18T06:40:37.950Z,37.62
2023-03-18T06:43:07.017Z,37.77
2023-03-18T06:45:38.468Z,37.78
2023-03-18T06:48:09.845Z,37.59
2023-03-18T06:50:42.381Z,37.52
2023-03-18T06:53:19.193Z,37.46
2023-03-18T06:55:49.727Z,37.26
2023-03-18T06:58:18.683Z,36.99
2023-03-18T07:01:00.654Z,37.02
2023-03-18T07:03:33.057Z,37.16
2023-03-18T07:06:02.812Z,36.94
2023-03-18T07:08:33.921Z,36.82
2023-03-18T07:11:03.894Z,36.89
2023-03-18T07:13:34.925Z,36.89
2023-03-18T07:16:05.821Z,36.84
2023-03-18T07:18:34.745Z,36.50
2023-03-18T07:21:11.567Z,36.18
2023-03-18T07:23:41.232Z,36.18
2023-03-18T07:26:10.229Z,36.00
2023-03-18T07:28:39.695Z,36.02
2023-03-18T07:31:08.010Z,35.87
2023-03-18T07:33:42.270Z,35.85
2023-03-18T07:36:10.912Z,35.93
2023-03-18T07:38:40.171Z,36.40
2023-03-18T07:41:08.735Z,36.40
2023-03-18T07:43:37.791Z,36.26
2023-03-18T07:46:06.951Z,36.05
2023-03-18T07:48:35.486Z,36.17
2023-03-18T07:51:03.952Z,36.28
2023-03-18T07:53:33.810Z,36.58
2023-03-18T07:56:03.551Z,36.88
2023-03-18T07:58:38.848Z,36.44
2023-03-18T08:01:07.780Z,36.15
2023-03-18T08:03:36.387Z,36.02
2023-03-18T08:06:06.066Z,35.89
2023-03-18T08:08:35.010Z,35.90
2023-03-18T08:11:06.604Z,35.77
2023-03-18T08:13:38.594Z,35.40
2023-03-18T08:16:07.264Z,35.44
2023-03-18T08:18:37.993Z,35.21
2023-03-18T08:21:07.987Z,35.14
2023-03-18T08:23:37.424Z,34.88
2023-03-18T08:26:07.899Z,34.66
2023-03-18T08:28:36.704Z,34.58
2023-03-18T08:31:10.384Z,34.41
2023-03-18T08:33:40.007Z,34.30
2023-03-18T08:36:08.800Z,34.38
2023-03-18T08:38:40.541Z,34.66
2023-03-18T08:41:10.476Z,34.75
2023-03-18T08:43:39.461Z,35.14
2023-03-18T08:46:09.122Z,35.25
2023-03-18T08:48:37.356Z,34.95
2023-03-18T08:51:08.420Z,34.48
2023-03-18T08:53:40.590Z,34.48
2023-03-18T08:56:15.133Z,34.17
2023-03-18T08:58:46.043Z,34.06
2023-03-18T09:01:15.187Z,33.90
2023-03-18T09:03:45.024Z,33.71
2023-03-18T09:06:13.581Z,33.74
2023-03-18T09:08:41.879Z,33.39
2023-03-18T09:11:10.852Z,33.50
2023-03-18T09:13:39.306Z,33.62
2023-03-18T09:16:15.008Z,33.70
2023-03-18T09:18:45.250Z,33.70
2023-03-18T09:21:15.361Z,33.30
2023-03-18T09:23:43.951Z,32.88
2023-03-18T09:26:12.324Z,32.63
2023-03-18T09:28:43.645Z,33.39
2023-03-18T09:31:13.807Z,33.45
2023-03-18T09:33:43.531Z,33.57
2023-03-18T09:36:12.744Z,33.30
2023-03-18T09:38:42.852Z,33.31
2023-03-18T09:41:48.616Z,33.66
2023-03-18T09:44:21.702Z,34.51
2023-03-18T09:47:20.898Z,34.68
2023-03-18T09:49:54.006Z,34.53
2023-03-18T09:52:22.576Z,34.59
2023-03-18T09:55:22.626Z,34.38
2023-03-18T09:57:51.917Z,34.23
2023-03-18T10:00:37.019Z,34.07
2023-03-18T10:03:24.343Z,33.95
2023-03-18T10:05:56.829Z,33.83
2023-03-18T10:08:35.915Z,34.13
2023-03-18T10:11:07.060Z,34.38
2023-03-18T10:13:47.879Z,34.83
2023-03-18T10:16:29.306Z,34.99
2023-03-18T10:18:57.539Z,35.24
2023-03-18T10:22:00.162Z,35.45
2023-03-18T10:24:46.914Z,35.55
2023-03-18T10:27:19.346Z,35.44
2023-03-18T10:29:53.261Z,35.25
2023-03-18T10:33:13.380Z,35.21
2023-03-18T10:35:51.560Z,34.58
2023-03-18T10:38:28.279Z,34.36
2023-03-18T10:40:56.507Z,34.14
2023-03-18T10:43:26.396Z,34.05
2023-03-18T10:46:06.113Z,33.69
2023-03-18T10:48:38.813Z,33.67
2023-03-18T10:51:24.965Z,33.57
2023-03-18T10:54:05.939Z,33.32
2023-03-18T10:56:36.064Z,33.35
2023-03-18T10:59:16.317Z,33.07
2023-03-18T11:01:47.082Z,32.88
2023-03-18T11:04:19.136Z,32.85
2023-03-18T11:06:58.358Z,32.97
2023-03-18T11:09:36.420Z,33.03
2023-03-18T11:12:06.957Z,33.05
2023-03-18T11:14:37.541Z,32.83
2023-03-18T11:17:19.011Z,32.53
2023-03-18T11:19:49.149Z,32.51
2023-03-18T11:22:24.293Z,32.48
2023-03-18T11:25:13.996Z,32.71
2023-03-18T11:27:51.367Z,32.59
2023-03-18T11:30:34.120Z,32.36
2023-03-18T11:33:04.206Z,31.81
2023-03-18T11:35:57.920Z,32.36
2023-03-18T11:38:34.746Z,33.03
2023-03-18T11:41:30.456Z,33.34
2023-03-18T11:44:03.788Z,33.39
2023-03-18T11:46:36.613Z,33.62
2023-03-18T11:52:04.987Z,36.34
2023-03-18T11:54:56.366Z,34.45
2023-03-18T11:57:30.484Z,34.04
2023-03-18T12:00:17.692Z,33.85
2023-03-18T12:02:46.518Z,33.77
2023-03-18T12:05:29.242Z,33.42
2023-03-18T12:08:03.847Z,33.23
2023-03-18T12:10:50.764Z,32.67
2023-03-18T12:13:31.702Z,32.92
2023-03-18T12:16:33.831Z,33.31
2023-03-18T12:19:19.509Z,33.48
2023-03-18T12:21:54.078Z,33.30
2023-03-18T12:24:54.848Z,32.98
2023-03-18T12:27:48.731Z,32.95
2023-03-18T12:30:32.699Z,33.39
2023-03-18T12:33:06.734Z,33.50
2023-03-18T12:35:42.675Z,33.28
2023-03-18T12:38:24.441Z,33.11
2023-03-18T12:41:07.416Z,32.76
2023-03-18T12:43:37.994Z,32.95
2023-03-18T12:46:56.654Z,33.07
2023-03-18T12:49:34.121Z,33.18
2023-03-18T12:52:03.455Z,33.22
2023-03-18T12:54:34.394Z,32.88
2023-03-18T12:57:08.338Z,33.05
2023-03-18T12:59:43.374Z,33.12
2023-03-18T13:03:07.698Z,33.53
2023-03-18T13:05:52.633Z,33.68
2023-03-18T13:08:41.881Z,33.87
2023-03-18T13:11:32.768Z,33.83
2023-03-18T13:14:07.629Z,34.18
2023-03-18T13:16:37.849Z,34.03
2023-03-18T13:19:06.855Z,33.97
2023-03-18T13:21:43.234Z,33.77
2023-03-18T13:24:11.670Z,33.96
2023-03-18T13:26:48.990Z,33.64
2023-03-18T13:29:52.873Z,33.75
2023-03-18T13:32:50.061Z,33.64
2023-03-18T13:35:46.187Z,33.71
2023-03-18T13:38:36.352Z,33.45
2023-03-18T13:41:17.749Z,33.33
2023-03-18T13:43:49.435Z,33.27
2023-03-18T13:46:31.388Z,33.43
2023-03-18T13:49:16.700Z,33.46
2023-03-18T13:51:53.693Z,33.54
2023-03-18T13:54:22.020Z,33.24
2023-03-18T13:56:58.527Z,33.07
2023-03-18T13:59:33.366Z,33.05
2023-03-18T14:02:31.418Z,33.16
2023-03-18T14:05:00.171Z,33.16
2023-03-18T14:07:29.736Z,33.30
2023-03-18T14:10:17.340Z,33.27
2023-03-18T14:12:51.246Z,33.20
2023-03-18T14:15:39.578Z,33.24
2023-03-18T14:18:27.606Z,33.44
2023-03-18T14:21:00.397Z,33.44
2023-03-18T14:23:37.607Z,33.48
2023-03-18T14:26:27.211Z,33.42
2023-03-18T14:29:04.883Z,32.99
2023-03-18T14:31:40.709Z,32.90
2023-03-18T14:34:18.245Z,32.86
2023-03-18T14:37:04.837Z,32.85
2023-03-18T14:39:48.182Z,32.93
2023-03-18T14:42:23.876Z,33.11
2023-03-18T14:44:59.403Z,33.27
2023-03-18T14:47:39.513Z,33.09
2023-03-18T14:50:40.705Z,32.90
2023-03-18T14:53:35.628Z,32.92
2023-03-18T14:56:05.202Z,32.94
2023-03-18T14:58:35.947Z,32.87
2023-03-18T15:01:05.762Z,32.89
2023-03-18T15:03:34.614Z,32.92
2023-03-18T15:06:04.318Z,33.04
2023-03-18T15:08:47.442Z,33.15
2023-03-18T15:11:16.837Z,33.34
2023-03-18T15:13:47.298Z,33.57
2023-03-18T15:16:18.987Z,33.61
2023-03-18T15:18:52.905Z,33.40
2023-03-18T15:21:26.143Z,33.21
2023-03-18T15:24:03.817Z,33.05
2023-03-18T15:26:38.786Z,32.88
2023-03-18T15:29:28.742Z,32.67
2023-03-18T15:32:30.707Z,32.58
2023-03-18T15:35:11.414Z,32.62
2023-03-18T15:37:42.621Z,32.68
2023-03-18T15:40:29.509Z,32.61
2023-03-18T15:43:25.081Z,32.51
2023-03-18T15:46:05.124Z,32.46
2023-03-18T15:48:39.797Z,32.34
2023-03-18T15:51:22.600Z,32.34
2023-03-18T15:53:59.373Z,32.35
2023-03-18T15:56:32.564Z,32.49
2023-03-18T15:59:13.237Z,32.62
2023-03-18T16:01:41.725Z,32.64
2023-03-18T16:04:14.908Z,32.69
2023-03-18T16:06:44.630Z,32.68
2023-03-18T16:09:17.668Z,32.73
2023-03-18T16:11:58.608Z,32.74
2023-03-18T16:14:37.657Z,32.73
2023-03-18T16:17:06.096Z,32.76
2023-03-18T16:19:39.592Z,32.76
2023-03-18T16:22:08.756Z,32.69
2023-03-18T16:24:37.813Z,32.76
2023-03-18T16:27:07.297Z,32.79
2023-03-18T16:29:38.332Z,32.92
2023-03-18T16:32:08.371Z,32.91
2023-03-18T16:34:36.840Z,32.97
2023-03-18T16:37:05.447Z,32.93
2023-03-18T16:39:36.981Z,33.02
2023-03-18T16:42:08.785Z,33.12
2023-03-18T16:44:37.045Z,33.13
2023-03-18T16:47:06.172Z,33.08
2023-03-18T16:49:37.478Z,33.29
2023-03-18T16:52:06.869Z,33.34
2023-03-18T16:54:35.139Z,33.36
2023-03-18T16:57:07.062Z,33.52
2023-03-18T16:59:36.665Z,33.35
2023-03-18T17:02:06.224Z,33.40
2023-03-18T17:04:35.004Z,33.43
2023-03-18T17:07:04.840Z,33.69
2023-03-18T17:09:35.036Z,33.86
2023-03-18T17:12:07.576Z,33.91
2023-03-18T17:14:38.803Z,33.87
2023-03-18T17:17:09.012Z,33.94
2023-03-18T17:19:37.276Z,34.00
2023-03-18T17:22:22.859Z,34.07
2023-03-18T17:24:51.761Z,34.07
2023-03-18T17:27:29.717Z,34.22
2023-03-18T17:29:57.898Z,34.22
2023-03-18T17:32:27.491Z,34.25
2023-03-18T17:34:58.208Z,34.24
2023-03-18T17:37:26.999Z,34.29
2023-03-18T17:39:57.292Z,34.34
2023-03-18T17:42:30.482Z,34.44
2023-03-18T17:45:06.045Z,34.54
2023-03-18T17:47:34.458Z,34.52
2023-03-18T17:50:05.036Z,34.62
2023-03-18T17:52:34.137Z,34.48
2023-03-18T17:55:02.436Z,34.51
2023-03-18T17:57:32.977Z,34.49
2023-03-18T18:00:01.152Z,34.42
2023-03-18T18:02:29.951Z,34.55
2023-03-18T18:05:03.818Z,34.65
2023-03-18T18:07:32.510Z,34.54
2023-03-18T18:10:01.400Z,34.51
2023-03-18T18:12:31.531Z,34.67
2023-03-18T18:15:00.147Z,34.66
2023-03-18T18:17:28.590Z,34.69
2023-03-18T18:19:57.796Z,34.71
2023-03-18T18:22:26.794Z,34.78
2023-03-18T18:25:00.691Z,34.80
2023-03-18T18:27:28.993Z,34.87
2023-03-18T18:29:57.762Z,35.01
2023-03-18T18:32:26.946Z,34.94
2023-03-18T18:34:56.069Z,35.06
2023-03-18T18:37:25.260Z,35.08
2023-03-18T18:39:53.566Z,35.05
2023-03-18T18:42:22.016Z,35.05
2023-03-18T18:44:52.865Z,34.96
2023-03-18T18:47:22.198Z,35.05
2023-03-18T18:49:51.262Z,35.19
2023-03-18T18:52:19.947Z,35.22
2023-03-18T18:54:48.464Z,35.27
2023-03-18T18:57:26.845Z,35.27
2023-03-18T18:59:55.819Z,35.32
2023-03-18T19:02:35.325Z,35.32
2023-03-18T19:05:04.982Z,35.52
2023-03-18T19:07:34.000Z,35.55
2023-03-18T19:10:02.563Z,35.69
2023-03-18T19:12:31.060Z,35.71
2023-03-18T19:15:00.044Z,35.56
2023-03-18T19:17:29.271Z,35.78
2023-03-18T19:19:58.734Z,35.84
2023-03-18T19:22:28.661Z,35.90
2023-03-18T19:24:57.366Z,36.01
2023-03-18T19:27:27.973Z,36.00
2023-03-18T19:29:58.133Z,36.15
2023-03-18T19:32:27.122Z,36.26
2023-03-18T19:34:59.484Z,36.33
2023-03-18T19:37:29.513Z,36.43
2023-03-18T19:39:58.176Z,36.54
2023-03-18T19:42:27.077Z,36.68
2023-03-18T19:44:56.792Z,36.74
2023-03-18T19:47:28.732Z,36.81
2023-03-18T19:49:57.636Z,36.74
2023-03-18T19:52:27.395Z,36.72
2023-03-18T19:54:56.373Z,36.44
2023-03-18T19:57:29.574Z,36.58
2023-03-18T20:00:01.500Z,36.82
2023-03-18T20:02:33.178Z,37.01
2023-03-18T20:05:03.820Z,37.06
2023-03-18T20:07:33.100Z,37.11
2023-03-18T20:10:02.024Z,37.02
2023-03-18T20:12:42.818Z,37.07
2023-03-18T20:15:20.289Z,37.12
2023-03-18T20:17:49.551Z,37.31
2023-03-18T20:20:25.931Z,37.07
2023-03-18T20:22:57.016Z,36.78
2023-03-18T20:25:32.606Z,36.63
2023-03-18T20:28:04.849Z,36.54
2023-03-18T20:30:35.962Z,36.57
2023-03-18T20:33:17.518Z,36.51
2023-03-18T20:35:47.137Z,36.48
2023-03-18T20:38:20.217Z,36.55
2023-03-18T20:40:51.180Z,36.57
2023-03-18T20:43:22.483Z,36.70
2023-03-18T20:45:53.193Z,36.84
2023-03-18T20:48:22.547Z,36.91
2023-03-18T20:50:52.154Z,37.01
2023-03-18T20:53:25.346Z,37.05
2023-03-18T20:55:53.971Z,36.75
2023-03-18T20:58:26.460Z,36.91
2023-03-18T21:00:55.515Z,37.02
2023-03-18T21:03:29.601Z,37.01
2023-03-18T21:05:59.334Z,36.96
2023-03-18T21:08:28.474Z,36.86
2023-03-18T21:11:04.105Z,36.92
2023-03-18T21:13:36.423Z,36.89
2023-03-18T21:16:11.055Z,36.91
2023-03-18T21:18:45.590Z,36.65
2023-03-18T21:21:25.143Z,36.55
2023-03-18T21:23:54.002Z,36.45
2023-03-18T21:26:23.362Z,36.43
2023-03-18T21:28:52.773Z,36.45
2023-03-18T21:31:24.133Z,36.56
2023-03-18T21:33:53.705Z,36.63
2023-03-18T21:36:22.621Z,36.60
2023-03-18T21:38:50.768Z,36.59
2023-03-18T21:41:20.441Z,36.59
2023-03-18T21:43:53.467Z,36.46
2023-03-18T21:46:24.724Z,36.42
2023-03-18T21:48:53.192Z,36.48
2023-03-18T21:51:39.607Z,36.47
2023-03-18T21:54:18.468Z,36.52
2023-03-18T21:56:48.074Z,36.59
2023-03-18T21:59:16.834Z,36.93
2023-03-18T22:01:46.886Z,37.08
2023-03-18T22:04:15.372Z,37.23
2023-03-18T22:06:43.835Z,37.38
2023-03-18T22:09:14.779Z,37.66
2023-03-18T22:11:43.845Z,37.88
2023-03-18T22:14:13.761Z,38.33
2023-03-18T22:16:42.759Z,38.54
2023-03-18T22:19:11.349Z,38.63
2023-03-18T22:21:40.818Z,38.60
2023-03-18T22:24:13.947Z,38.51
2023-03-18T22:26:42.073Z,37.95
2023-03-18T22:29:12.852Z,37.81
2023-03-18T22:31:43.914Z,37.96
2023-03-18T22:34:22.799Z,37.89
2023-03-18T22:36:51.916Z,37.78
2023-03-18T22:39:20.242Z,37.75
2023-03-18T22:41:53.897Z,37.67
2023-03-18T22:44:22.961Z,37.72
2023-03-18T22:46:51.543Z,37.96
2023-03-18T22:49:20.163Z,37.86
2023-03-18T22:51:49.183Z,37.77
2023-03-18T22:54:18.626Z,37.69
2023-03-18T22:56:47.362Z,37.66
2023-03-18T22:59:15.734Z,37.70
2023-03-18T23:01:44.942Z,37.62
2023-03-18T23:04:13.504Z,37.56
2023-03-18T23:06:44.400Z,37.64
2023-03-18T23:09:13.448Z,37.60
2023-03-18T23:11:42.136Z,37.71
2023-03-18T23:14:11.236Z,37.85
2023-03-18T23:16:41.132Z,37.81
2023-03-18T23:19:09.748Z,37.65
2023-03-18T23:21:38.009Z,37.86
2023-03-18T23:24:07.463Z,37.99
2023-03-18T23:26:36.825Z,37.86
2023-03-18T23:29:06.323Z,38.03
2023-03-18T23:31:34.651Z,38.17
2023-03-18T23:34:03.905Z,38.04
2023-03-18T23:36:32.928Z,38.06
2023-03-18T23:39:01.397Z,38.20
2023-03-18T23:41:30.994Z,38.24
2023-03-18T23:44:03.701Z,38.25
2023-03-18T23:46:33.045Z,38.26
2023-03-18T23:49:01.560Z,38.19
2023-03-18T23:51:30.158Z,38.37
2023-03-18T23:53:58.419Z,38.24
2023-03-18T23:56:26.463Z,38.22
2023-03-18T23:58:55.079Z,38.26
